sensor_id;sensor_type;location;lat;lon;timestamp;P1;durP1;ratioP1;P2;durP2;ratioP2
31596;SDS011;18201;50.978;7.034;2022-09-01T04:40:29;2.78;;;2.58;;
31596;SDS011;18201;50.978;7.034;2022-09-01T04:41:31;7.25;;;3.40;;
31596;SDS011;18201;50.978;7.034;2022-09-01T04:42:32;5.53;;;3.30;;
31596;SDS011;18201;50.978;7.034;2022-09-01T04:43:34;3.15;;;2.78;;
31596;SDS011;18201;50.978;7.034;2022-09-01T04:44:36;3.78;;;3.10;;
31596;SDS011;18201;50.978;7.034;2022-09-01T04:45:39;2.58;;;2.42;;
31596;SDS011;18201;50.978;7.034;2022-09-01T04:46:40;5.07;;;2.70;;
31596;SDS011;18201;50.978;7.034;2022-09-01T04:47:45;5.97;;;3.25;;
31596;SDS011;18201;50.978;7.034;2022-09-01T04:48:47;5.93;;;3.28;;
31596;SDS011;18201;50.978;7.034;2022-09-01T04:49:53;5.40;;;3.17;;
31596;SDS011;18201;50.978;7.034;2022-09-01T04:50:57;3.17;;;2.88;;
31596;SDS011;18201;50.978;7.034;2022-09-01T04:51:58;9.18;;;3.40;;
31596;SDS011;18201;50.978;7.034;2022-09-01T04:53:00;3.00;;;2.80;;
31596;SDS011;18201;50.978;7.034;2022-09-01T04:54:05;3.72;;;2.80;;
31596;SDS011;18201;50.978;7.034;2022-09-01T04:55:13;4.25;;;3.40;;
31596;SDS011;18201;50.978;7.034;2022-09-01T04:56:19;6.05;;;3.15;;
31596;SDS011;18201;50.978;7.034;2022-09-01T04:57:22;3.53;;;3.15;;
31596;SDS011;18201;50.978;7.034;2022-09-01T04:58:28;4.50;;;3.03;;
31596;SDS011;18201;50.978;7.034;2022-09-01T04:59:29;5.85;;;3.85;;
31596;SDS011;18201;50.978;7.034;2022-09-01T05:00:31;3.45;;;3.00;;
31596;SDS011;18201;50.978;7.034;2022-09-01T05:01:33;5.15;;;3.20;;
31596;SDS011;18201;50.978;7.034;2022-09-01T05:02:42;3.30;;;3.00;;
31596;SDS011;18201;50.978;7.034;2022-09-01T05:03:46;5.05;;;2.70;;
31596;SDS011;18201;50.978;7.034;2022-09-01T05:04:55;3.22;;;2.90;;
31596;SDS011;18201;50.978;7.034;2022-09-01T05:05:57;3.28;;;2.70;;
31596;SDS011;18201;50.978;7.034;2022-09-01T05:07:03;5.53;;;3.25;;
31596;SDS011;18201;50.978;7.034;2022-09-01T05:08:08;3.10;;;2.90;;
31596;SDS011;18201;50.978;7.034;2022-09-01T05:09:13;8.68;;;2.95;;
31596;SDS011;18201;50.978;7.034;2022-09-01T05:10:17;4.30;;;3.00;;
31596;SDS011;18201;50.978;7.034;2022-09-01T05:11:21;3.28;;;2.97;;
31596;SDS011;18201;50.978;7.034;2022-09-01T05:12:24;4.75;;;3.15;;
31596;SDS011;18201;50.978;7.034;2022-09-01T05:13:26;7.00;;;3.25;;
31596;SDS011;18201;50.978;7.034;2022-09-01T05:14:28;4.45;;;2.97;;
31596;SDS011;18201;50.978;7.034;2022-09-01T05:15:29;3.28;;;2.97;;
31596;SDS011;18201;50.978;7.034;2022-09-01T05:16:32;4.28;;;2.72;;
31596;SDS011;18201;50.978;7.034;2022-09-01T05:17:34;3.33;;;2.97;;
31596;SDS011;18201;50.978;7.034;2022-09-01T05:18:37;5.78;;;3.08;;
31596;SDS011;18201;50.978;7.034;2022-09-01T05:19:40;3.10;;;2.63;;
31596;SDS011;18201;50.978;7.034;2022-09-01T05:20:44;7.47;;;3.42;;
31596;SDS011;18201;50.978;7.034;2022-09-01T05:21:46;3.15;;;2.83;;
31596;SDS011;18201;50.978;7.034;2022-09-01T05:22:48;3.78;;;2.75;;
31596;SDS011;18201;50.978;7.034;2022-09-01T05:23:54;6.43;;;2.85;;
31596;SDS011;18201;50.978;7.034;2022-09-01T05:24:57;4.82;;;3.10;;
31596;SDS011;18201;50.978;7.034;2022-09-01T05:26:12;3.38;;;2.75;;
31596;SDS011;18201;50.978;7.034;2022-09-01T05:27:18;4.97;;;2.90;;
31596;SDS011;18201;50.978;7.034;2022-09-01T05:28:21;4.50;;;3.22;;
31596;SDS011;18201;50.978;7.034;2022-09-01T05:29:24;3.00;;;2.63;;
31596;SDS011;18201;50.978;7.034;2022-09-01T05:30:26;2.65;;;2.30;;
31596;SDS011;18201;50.978;7.034;2022-09-01T05:31:28;4.57;;;2.35;;
31596;SDS011;18201;50.978;7.034;2022-09-01T05:32:33;5.03;;;2.60;;
31596;SDS011;18201;50.978;7.034;2022-09-01T05:33:36;4.60;;;2.45;;
31596;SDS011;18201;50.978;7.034;2022-09-01T05:34:44;4.65;;;3.08;;
31596;SDS011;18201;50.978;7.034;2022-09-01T05:35:51;4.93;;;3.05;;
31596;SDS011;18201;50.978;7.034;2022-09-01T05:36:55;7.53;;;3.42;;
31596;SDS011;18201;50.978;7.034;2022-09-01T05:38:00;3.30;;;3.00;;
31596;SDS011;18201;50.978;7.034;2022-09-01T05:39:03;2.70;;;2.50;;
31596;SDS011;18201;50.978;7.034;2022-09-01T05:40:07;6.93;;;2.63;;
31596;SDS011;18201;50.978;7.034;2022-09-01T05:41:15;28.10;;;17.42;;
31596;SDS011;18201;50.978;7.034;2022-09-01T05:42:21;20.60;;;13.95;;
31596;SDS011;18201;50.978;7.034;2022-09-01T05:43:22;20.25;;;13.50;;
31596;SDS011;18201;50.978;7.034;2022-09-01T05:44:26;13.00;;;8.75;;
31596;SDS011;18201;50.978;7.034;2022-09-01T05:45:28;7.45;;;5.18;;
31596;SDS011;18201;50.978;7.034;2022-09-01T05:46:29;5.57;;;4.53;;
31596;SDS011;18201;50.978;7.034;2022-09-01T05:47:31;3.58;;;3.13;;
31596;SDS011;18201;50.978;7.034;2022-09-01T05:48:35;3.88;;;3.42;;
31596;SDS011;18201;50.978;7.034;2022-09-01T05:49:40;3.38;;;2.92;;
31596;SDS011;18201;50.978;7.034;2022-09-01T05:50:41;3.50;;;2.83;;
31596;SDS011;18201;50.978;7.034;2022-09-01T05:51:47;2.97;;;2.67;;
31596;SDS011;18201;50.978;7.034;2022-09-01T05:52:50;4.68;;;3.00;;
31596;SDS011;18201;50.978;7.034;2022-09-01T05:53:53;3.53;;;3.22;;
31596;SDS011;18201;50.978;7.034;2022-09-01T05:54:58;5.47;;;2.70;;
31596;SDS011;18201;50.978;7.034;2022-09-01T05:56:00;2.78;;;2.58;;
31596;SDS011;18201;50.978;7.034;2022-09-01T05:57:06;3.28;;;2.55;;
31596;SDS011;18201;50.978;7.034;2022-09-01T05:58:10;5.38;;;2.65;;
31596;SDS011;18201;50.978;7.034;2022-09-01T05:59:14;2.80;;;2.60;;
31596;SDS011;18201;50.978;7.034;2022-09-01T06:00:17;4.10;;;2.65;;
31596;SDS011;18201;50.978;7.034;2022-09-01T06:01:19;4.07;;;2.55;;
31596;SDS011;18201;50.978;7.034;2022-09-01T06:02:23;4.35;;;2.50;;
31596;SDS011;18201;50.978;7.034;2022-09-01T06:03:26;2.83;;;2.25;;
31596;SDS011;18201;50.978;7.034;2022-09-01T06:04:29;3.33;;;2.42;;
31596;SDS011;18201;50.978;7.034;2022-09-01T06:05:32;4.95;;;2.83;;
31596;SDS011;18201;50.978;7.034;2022-09-01T06:06:36;5.80;;;2.70;;
31596;SDS011;18201;50.978;7.034;2022-09-01T06:07:39;4.60;;;2.88;;
31596;SDS011;18201;50.978;7.034;2022-09-01T06:08:41;4.72;;;2.40;;
31596;SDS011;18201;50.978;7.034;2022-09-01T06:09:47;3.28;;;2.25;;
31596;SDS011;18201;50.978;7.034;2022-09-01T06:10:49;6.05;;;2.72;;
31596;SDS011;18201;50.978;7.034;2022-09-01T06:11:51;5.47;;;2.30;;
31596;SDS011;18201;50.978;7.034;2022-09-01T06:12:56;5.55;;;2.63;;
31596;SDS011;18201;50.978;7.034;2022-09-01T06:14:02;5.50;;;2.33;;
31596;SDS011;18201;50.978;7.034;2022-09-01T06:15:05;2.33;;;2.13;;
31596;SDS011;18201;50.978;7.034;2022-09-01T06:16:14;5.25;;;2.40;;
31596;SDS011;18201;50.978;7.034;2022-09-01T06:17:16;5.55;;;2.25;;
31596;SDS011;18201;50.978;7.034;2022-09-01T06:18:21;2.65;;;2.45;;
31596;SDS011;18201;50.978;7.034;2022-09-01T06:19:26;3.30;;;2.50;;
31596;SDS011;18201;50.978;7.034;2022-09-01T06:20:27;3.15;;;2.25;;
31596;SDS011;18201;50.978;7.034;2022-09-01T06:21:29;3.08;;;2.22;;
31596;SDS011;18201;50.978;7.034;2022-09-01T06:22:31;2.78;;;2.08;;
31596;SDS011;18201;50.978;7.034;2022-09-01T06:23:35;3.22;;;2.00;;
31596;SDS011;18201;50.978;7.034;2022-09-01T06:24:37;3.05;;;2.10;;
31596;SDS011;18201;50.978;7.034;2022-09-01T06:25:40;2.45;;;2.22;;
31596;SDS011;18201;50.978;7.034;2022-09-01T06:26:45;5.70;;;2.30;;
31596;SDS011;18201;50.978;7.034;2022-09-01T06:27:46;3.15;;;2.35;;
31596;SDS011;18201;50.978;7.034;2022-09-01T06:28:48;2.15;;;1.83;;
31596;SDS011;18201;50.978;7.034;2022-09-01T06:29:54;3.38;;;1.67;;
31596;SDS011;18201;50.978;7.034;2022-09-01T06:30:57;3.70;;;2.20;;
31596;SDS011;18201;50.978;7.034;2022-09-01T06:31:58;2.58;;;1.80;;
31596;SDS011;18201;50.978;7.034;2022-09-01T06:33:01;3.58;;;1.98;;
31596;SDS011;18201;50.978;7.034;2022-09-01T06:34:07;4.82;;;2.05;;
31596;SDS011;18201;50.978;7.034;2022-09-01T06:35:16;2.25;;;1.83;;
31596;SDS011;18201;50.978;7.034;2022-09-01T06:36:19;3.75;;;1.80;;
31596;SDS011;18201;50.978;7.034;2022-09-01T06:37:22;3.08;;;1.90;;
31596;SDS011;18201;50.978;7.034;2022-09-01T06:38:23;8.63;;;2.22;;
31596;SDS011;18201;50.978;7.034;2022-09-01T06:39:26;1.70;;;1.60;;
31596;SDS011;18201;50.978;7.034;2022-09-01T06:40:27;4.57;;;1.80;;
31596;SDS011;18201;50.978;7.034;2022-09-01T06:41:29;4.40;;;2.00;;
31596;SDS011;18201;50.978;7.034;2022-09-01T06:42:31;4.63;;;2.20;;
31596;SDS011;18201;50.978;7.034;2022-09-01T06:43:34;2.97;;;1.77;;
31596;SDS011;18201;50.978;7.034;2022-09-01T06:44:36;2.80;;;1.50;;
31596;SDS011;18201;50.978;7.034;2022-09-01T06:45:40;4.20;;;1.75;;
31596;SDS011;18201;50.978;7.034;2022-09-01T06:46:43;4.95;;;1.90;;
31596;SDS011;18201;50.978;7.034;2022-09-01T06:47:45;4.07;;;1.65;;
31596;SDS011;18201;50.978;7.034;2022-09-01T06:48:50;3.30;;;1.75;;
31596;SDS011;18201;50.978;7.034;2022-09-01T06:49:53;1.80;;;1.60;;
31596;SDS011;18201;50.978;7.034;2022-09-01T06:50:58;2.25;;;1.55;;
31596;SDS011;18201;50.978;7.034;2022-09-01T06:52:02;1.88;;;1.73;;
31596;SDS011;18201;50.978;7.034;2022-09-01T06:53:03;2.88;;;1.92;;
31596;SDS011;18201;50.978;7.034;2022-09-01T06:54:10;2.10;;;1.65;;
31596;SDS011;18201;50.978;7.034;2022-09-01T06:55:13;2.63;;;1.23;;
31596;SDS011;18201;50.978;7.034;2022-09-01T06:56:15;2.97;;;1.52;;
31596;SDS011;18201;50.978;7.034;2022-09-01T06:57:18;2.22;;;1.60;;
31596;SDS011;18201;50.978;7.034;2022-09-01T06:58:21;2.33;;;1.33;;
31596;SDS011;18201;50.978;7.034;2022-09-01T06:59:26;3.00;;;1.45;;
31596;SDS011;18201;50.978;7.034;2022-09-01T07:00:30;2.30;;;2.10;;
31596;SDS011;18201;50.978;7.034;2022-09-01T07:01:35;8.27;;;4.57;;
31596;SDS011;18201;50.978;7.034;2022-09-01T07:02:38;4.38;;;3.22;;
31596;SDS011;18201;50.978;7.034;2022-09-01T07:03:42;1.65;;;1.55;;
31596;SDS011;18201;50.978;7.034;2022-09-01T07:04:44;1.58;;;1.20;;
31596;SDS011;18201;50.978;7.034;2022-09-01T07:05:49;2.03;;;1.83;;
31596;SDS011;18201;50.978;7.034;2022-09-01T07:06:52;3.78;;;1.75;;
31596;SDS011;18201;50.978;7.034;2022-09-01T07:07:53;1.52;;;1.42;;
31596;SDS011;18201;50.978;7.034;2022-09-01T07:08:55;2.00;;;1.35;;
31596;SDS011;18201;50.978;7.034;2022-09-01T07:09:58;1.77;;;1.55;;
31596;SDS011;18201;50.978;7.034;2022-09-01T07:10:59;2.80;;;1.80;;
31596;SDS011;18201;50.978;7.034;2022-09-01T07:12:04;5.57;;;1.73;;
31596;SDS011;18201;50.978;7.034;2022-09-01T07:13:06;1.98;;;1.77;;
31596;SDS011;18201;50.978;7.034;2022-09-01T07:14:09;4.63;;;1.20;;
31596;SDS011;18201;50.978;7.034;2022-09-01T07:15:14;3.35;;;1.30;;
31596;SDS011;18201;50.978;7.034;2022-09-01T07:16:16;3.92;;;1.52;;
31596;SDS011;18201;50.978;7.034;2022-09-01T07:17:24;2.90;;;1.20;;
31596;SDS011;18201;50.978;7.034;2022-09-01T07:18:25;2.15;;;1.40;;
31596;SDS011;18201;50.978;7.034;2022-09-01T07:19:29;2.88;;;1.85;;
31596;SDS011;18201;50.978;7.034;2022-09-01T07:20:32;4.28;;;1.70;;
31596;SDS011;18201;50.978;7.034;2022-09-01T07:21:38;3.28;;;1.73;;
31596;SDS011;18201;50.978;7.034;2022-09-01T07:22:39;1.90;;;1.42;;
31596;SDS011;18201;50.978;7.034;2022-09-01T07:23:42;3.65;;;1.80;;
31596;SDS011;18201;50.978;7.034;2022-09-01T07:24:44;2.70;;;1.80;;
31596;SDS011;18201;50.978;7.034;2022-09-01T07:25:47;1.77;;;1.20;;
31596;SDS011;18201;50.978;7.034;2022-09-01T07:26:54;2.35;;;1.08;;
31596;SDS011;18201;50.978;7.034;2022-09-01T07:27:54;3.85;;;1.65;;
31596;SDS011;18201;50.978;7.034;2022-09-01T07:28:59;3.25;;;1.70;;
31596;SDS011;18201;50.978;7.034;2022-09-01T07:30:02;3.08;;;1.58;;
31596;SDS011;18201;50.978;7.034;2022-09-01T07:31:08;1.98;;;1.30;;
31596;SDS011;18201;50.978;7.034;2022-09-01T07:32:19;1.30;;;1.20;;
31596;SDS011;18201;50.978;7.034;2022-09-01T07:33:23;2.22;;;1.40;;
31596;SDS011;18201;50.978;7.034;2022-09-01T07:34:26;1.83;;;1.70;;
31596;SDS011;18201;50.978;7.034;2022-09-01T07:35:29;1.88;;;1.27;;
31596;SDS011;18201;50.978;7.034;2022-09-01T07:36:35;1.85;;;1.27;;
31596;SDS011;18201;50.978;7.034;2022-09-01T07:37:37;2.20;;;1.38;;
31596;SDS011;18201;50.978;7.034;2022-09-01T07:38:38;2.30;;;1.50;;
31596;SDS011;18201;50.978;7.034;2022-09-01T07:39:42;9.15;;;1.67;;
31596;SDS011;18201;50.978;7.034;2022-09-01T07:40:44;2.10;;;1.52;;
31596;SDS011;18201;50.978;7.034;2022-09-01T07:41:46;3.25;;;1.70;;
31596;SDS011;18201;50.978;7.034;2022-09-01T07:42:52;6.28;;;1.63;;
31596;SDS011;18201;50.978;7.034;2022-09-01T07:43:56;5.68;;;1.65;;
31596;SDS011;18201;50.978;7.034;2022-09-01T07:45:00;6.85;;;1.58;;
31596;SDS011;18201;50.978;7.034;2022-09-01T07:46:03;2.67;;;1.33;;
31596;SDS011;18201;50.978;7.034;2022-09-01T07:47:06;2.17;;;1.10;;
31596;SDS011;18201;50.978;7.034;2022-09-01T07:48:08;1.55;;;1.27;;
31596;SDS011;18201;50.978;7.034;2022-09-01T07:49:11;2.88;;;1.20;;
31596;SDS011;18201;50.978;7.034;2022-09-01T07:50:13;4.07;;;1.60;;
31596;SDS011;18201;50.978;7.034;2022-09-01T07:51:15;2.15;;;1.40;;
31596;SDS011;18201;50.978;7.034;2022-09-01T07:52:19;2.72;;;1.30;;
31596;SDS011;18201;50.978;7.034;2022-09-01T07:53:21;1.77;;;1.30;;
31596;SDS011;18201;50.978;7.034;2022-09-01T07:54:24;5.28;;;1.58;;
31596;SDS011;18201;50.978;7.034;2022-09-01T07:55:25;2.20;;;1.30;;
31596;SDS011;18201;50.978;7.034;2022-09-01T07:56:27;2.70;;;1.40;;
31596;SDS011;18201;50.978;7.034;2022-09-01T07:57:30;3.08;;;1.10;;
31596;SDS011;18201;50.978;7.034;2022-09-01T07:58:31;4.53;;;1.52;;
31596;SDS011;18201;50.978;7.034;2022-09-01T07:59:33;1.88;;;1.60;;
31596;SDS011;18201;50.978;7.034;2022-09-01T08:00:34;1.60;;;1.50;;
31596;SDS011;18201;50.978;7.034;2022-09-01T08:01:37;3.92;;;1.90;;
31596;SDS011;18201;50.978;7.034;2022-09-01T08:02:39;4.28;;;1.85;;
31596;SDS011;18201;50.978;7.034;2022-09-01T08:03:40;1.40;;;1.27;;
31596;SDS011;18201;50.978;7.034;2022-09-01T08:04:44;4.32;;;1.15;;
31596;SDS011;18201;50.978;7.034;2022-09-01T08:05:45;4.18;;;1.70;;
31596;SDS011;18201;50.978;7.034;2022-09-01T08:06:50;4.05;;;1.35;;
31596;SDS011;18201;50.978;7.034;2022-09-01T08:07:52;2.40;;;1.23;;
31596;SDS011;18201;50.978;7.034;2022-09-01T08:08:55;3.25;;;1.40;;
31596;SDS011;18201;50.978;7.034;2022-09-01T08:09:58;1.70;;;1.30;;
31596;SDS011;18201;50.978;7.034;2022-09-01T08:11:00;2.33;;;1.23;;
31596;SDS011;18201;50.978;7.034;2022-09-01T08:12:01;2.97;;;1.15;;
31596;SDS011;18201;50.978;7.034;2022-09-01T08:13:04;3.65;;;1.10;;
31596;SDS011;18201;50.978;7.034;2022-09-01T08:14:05;3.03;;;1.25;;
31596;SDS011;18201;50.978;7.034;2022-09-01T08:15:09;2.58;;;1.33;;
31596;SDS011;18201;50.978;7.034;2022-09-01T08:16:12;1.27;;;0.98;;
31596;SDS011;18201;50.978;7.034;2022-09-01T08:17:15;1.67;;;1.40;;
31596;SDS011;18201;50.978;7.034;2022-09-01T08:18:17;1.63;;;1.08;;
31596;SDS011;18201;50.978;7.034;2022-09-01T08:19:18;2.25;;;1.05;;
31596;SDS011;18201;50.978;7.034;2022-09-01T08:20:21;1.60;;;1.30;;
31596;SDS011;18201;50.978;7.034;2022-09-01T08:21:22;1.80;;;1.25;;
31596;SDS011;18201;50.978;7.034;2022-09-01T08:22:26;1.85;;;0.95;;
31596;SDS011;18201;50.978;7.034;2022-09-01T08:23:27;2.28;;;1.05;;
31596;SDS011;18201;50.978;7.034;2022-09-01T08:24:29;2.72;;;1.10;;
31596;SDS011;18201;50.978;7.034;2022-09-01T08:25:30;2.25;;;1.30;;
31596;SDS011;18201;50.978;7.034;2022-09-01T08:26:33;5.03;;;1.20;;
31596;SDS011;18201;50.978;7.034;2022-09-01T08:27:36;2.22;;;1.13;;
31596;SDS011;18201;50.978;7.034;2022-09-01T08:28:38;1.60;;;1.35;;
31596;SDS011;18201;50.978;7.034;2022-09-01T08:29:40;4.20;;;1.15;;
31596;SDS011;18201;50.978;7.034;2022-09-01T08:30:42;1.77;;;1.13;;
31596;SDS011;18201;50.978;7.034;2022-09-01T08:31:45;2.30;;;1.08;;
31596;SDS011;18201;50.978;7.034;2022-09-01T08:32:46;2.97;;;1.70;;
31596;SDS011;18201;50.978;7.034;2022-09-01T08:33:49;3.65;;;1.55;;
31596;SDS011;18201;50.978;7.034;2022-09-01T08:34:50;2.67;;;1.27;;
31596;SDS011;18201;50.978;7.034;2022-09-01T08:35:54;3.08;;;1.42;;
31596;SDS011;18201;50.978;7.034;2022-09-01T08:36:56;1.98;;;1.20;;
31596;SDS011;18201;50.978;7.034;2022-09-01T08:37:58;6.30;;;1.50;;
31596;SDS011;18201;50.978;7.034;2022-09-01T08:38:59;1.75;;;1.15;;
31596;SDS011;18201;50.978;7.034;2022-09-01T08:40:01;3.05;;;1.52;;
31596;SDS011;18201;50.978;7.034;2022-09-01T08:41:04;2.30;;;1.27;;
31596;SDS011;18201;50.978;7.034;2022-09-01T08:42:15;4.22;;;1.42;;
31596;SDS011;18201;50.978;7.034;2022-09-01T08:43:26;2.20;;;1.30;;
31596;SDS011;18201;50.978;7.034;2022-09-01T08:44:37;1.83;;;0.90;;
31596;SDS011;18201;50.978;7.034;2022-09-01T08:45:46;2.20;;;1.35;;
31596;SDS011;18201;50.978;7.034;2022-09-01T08:46:48;3.13;;;1.50;;
31596;SDS011;18201;50.978;7.034;2022-09-01T08:47:59;5.93;;;2.40;;
31596;SDS011;18201;50.978;7.034;2022-09-01T08:49:11;2.63;;;1.70;;
31596;SDS011;18201;50.978;7.034;2022-09-01T08:50:14;2.83;;;1.73;;
31596;SDS011;18201;50.978;7.034;2022-09-01T08:51:23;2.45;;;1.30;;
31596;SDS011;18201;50.978;7.034;2022-09-01T08:52:32;2.35;;;1.27;;
31596;SDS011;18201;50.978;7.034;2022-09-01T08:53:36;1.65;;;0.90;;
31596;SDS011;18201;50.978;7.034;2022-09-01T08:54:44;2.35;;;1.10;;
31596;SDS011;18201;50.978;7.034;2022-09-01T08:55:49;1.00;;;0.90;;
31596;SDS011;18201;50.978;7.034;2022-09-01T08:56:57;2.05;;;0.93;;
31596;SDS011;18201;50.978;7.034;2022-09-01T08:58:00;2.90;;;1.02;;
31596;SDS011;18201;50.978;7.034;2022-09-01T08:59:05;2.20;;;1.10;;
31596;SDS011;18201;50.978;7.034;2022-09-01T09:00:09;1.02;;;0.95;;
31596;SDS011;18201;50.978;7.034;2022-09-01T09:01:15;2.25;;;1.00;;
31596;SDS011;18201;50.978;7.034;2022-09-01T09:02:26;2.85;;;1.55;;
31596;SDS011;18201;50.978;7.034;2022-09-01T09:03:55;1.52;;;1.10;;
31596;SDS011;18201;50.978;7.034;2022-09-01T09:05:12;2.40;;;1.08;;
31596;SDS011;18201;50.978;7.034;2022-09-01T09:06:28;4.25;;;1.23;;
31596;SDS011;18201;50.978;7.034;2022-09-01T09:07:42;1.25;;;1.10;;
31596;SDS011;18201;50.978;7.034;2022-09-01T09:10:10;3.67;;;1.00;;
31596;SDS011;18201;50.978;7.034;2022-09-01T09:11:19;4.97;;;1.00;;
31596;SDS011;18201;50.978;7.034;2022-09-01T09:40:48;0.85;;;0.85;;
31596;SDS011;18201;50.978;7.034;2022-09-01T10:51:41;1.98;;;0.75;;
31596;SDS011;18201;50.978;7.034;2022-09-01T10:53:09;0.88;;;0.70;;
31596;SDS011;18201;50.978;7.034;2022-09-01T11:07:20;0.50;;;0.50;;
31596;SDS011;18201;50.978;7.034;2022-09-01T11:08:40;1.00;;;0.63;;
31596;SDS011;18201;50.978;7.034;2022-09-01T11:11:48;1.67;;;0.80;;
31596;SDS011;18201;50.978;7.034;2022-09-01T11:13:04;1.83;;;0.88;;
31596;SDS011;18201;50.978;7.034;2022-09-01T11:14:21;3.58;;;0.90;;
31596;SDS011;18201;50.978;7.034;2022-09-01T11:15:34;1.10;;;0.68;;
31596;SDS011;18201;50.978;7.034;2022-09-01T11:16:37;1.48;;;0.90;;
31596;SDS011;18201;50.978;7.034;2022-09-01T11:17:52;0.95;;;0.80;;
31596;SDS011;18201;50.978;7.034;2022-09-01T11:20:32;2.55;;;0.90;;
31596;SDS011;18201;50.978;7.034;2022-09-01T11:23:19;2.63;;;0.98;;
31596;SDS011;18201;50.978;7.034;2022-09-01T11:25:46;2.10;;;0.65;;
31596;SDS011;18201;50.978;7.034;2022-09-01T11:26:49;3.53;;;0.90;;
31596;SDS011;18201;50.978;7.034;2022-09-01T11:28:00;2.47;;;0.70;;
31596;SDS011;18201;50.978;7.034;2022-09-01T11:30:45;0.80;;;0.65;;
31596;SDS011;18201;50.978;7.034;2022-09-01T11:31:51;2.28;;;1.10;;
31596;SDS011;18201;50.978;7.034;2022-09-01T11:32:56;1.17;;;0.98;;
31596;SDS011;18201;50.978;7.034;2022-09-01T11:34:08;1.17;;;0.50;;
31596;SDS011;18201;50.978;7.034;2022-09-01T11:35:19;1.40;;;0.90;;
31596;SDS011;18201;50.978;7.034;2022-09-01T11:36:26;3.03;;;1.17;;
31596;SDS011;18201;50.978;7.034;2022-09-01T11:37:30;1.30;;;0.70;;
31596;SDS011;18201;50.978;7.034;2022-09-01T11:38:37;0.75;;;0.63;;
31596;SDS011;18201;50.978;7.034;2022-09-01T11:40:23;3.17;;;1.45;;
31596;SDS011;18201;50.978;7.034;2022-09-01T11:41:31;4.10;;;1.27;;
31596;SDS011;18201;50.978;7.034;2022-09-01T11:42:56;2.05;;;1.35;;
31596;SDS011;18201;50.978;7.034;2022-09-01T11:44:19;4.50;;;1.00;;
31596;SDS011;18201;50.978;7.034;2022-09-01T11:46:38;2.30;;;0.98;;
31596;SDS011;18201;50.978;7.034;2022-09-01T11:48:35;3.13;;;1.15;;
31596;SDS011;18201;50.978;7.034;2022-09-01T11:49:37;1.40;;;0.95;;
31596;SDS011;18201;50.978;7.034;2022-09-01T11:50:46;1.67;;;0.85;;
31596;SDS011;18201;50.978;7.034;2022-09-01T11:51:58;2.25;;;0.95;;
31596;SDS011;18201;50.978;7.034;2022-09-01T11:53:02;1.25;;;1.15;;
31596;SDS011;18201;50.978;7.034;2022-09-01T11:54:07;1.50;;;0.70;;
31596;SDS011;18201;50.978;7.034;2022-09-01T11:55:10;2.97;;;1.05;;
31596;SDS011;18201;50.978;7.034;2022-09-01T11:56:14;1.67;;;1.13;;
31596;SDS011;18201;50.978;7.034;2022-09-01T11:57:17;3.50;;;1.10;;
31596;SDS011;18201;50.978;7.034;2022-09-01T11:58:30;3.47;;;0.75;;
31596;SDS011;18201;50.978;7.034;2022-09-01T12:09:18;1.13;;;0.88;;
31596;SDS011;18201;50.978;7.034;2022-09-01T12:10:20;1.33;;;1.13;;
31596;SDS011;18201;50.978;7.034;2022-09-01T12:11:31;0.93;;;0.82;;
31596;SDS011;18201;50.978;7.034;2022-09-01T12:12:33;1.20;;;1.10;;
31596;SDS011;18201;50.978;7.034;2022-09-01T12:13:37;1.83;;;1.25;;
31596;SDS011;18201;50.978;7.034;2022-09-01T12:14:40;1.25;;;1.00;;
31596;SDS011;18201;50.978;7.034;2022-09-01T12:17:06;1.20;;;0.80;;
31596;SDS011;18201;50.978;7.034;2022-09-01T12:18:09;0.80;;;0.80;;
31596;SDS011;18201;50.978;7.034;2022-09-01T12:19:21;2.25;;;1.33;;
31596;SDS011;18201;50.978;7.034;2022-09-01T12:20:26;1.95;;;0.98;;
31596;SDS011;18201;50.978;7.034;2022-09-01T12:21:29;1.52;;;0.88;;
31596;SDS011;18201;50.978;7.034;2022-09-01T12:22:33;0.80;;;0.80;;
31596;SDS011;18201;50.978;7.034;2022-09-01T12:23:35;1.20;;;0.90;;
31596;SDS011;18201;50.978;7.034;2022-09-01T12:24:43;4.10;;;1.08;;
31596;SDS011;18201;50.978;7.034;2022-09-01T12:25:45;2.28;;;0.80;;
31596;SDS011;18201;50.978;7.034;2022-09-01T12:26:47;0.95;;;0.82;;
31596;SDS011;18201;50.978;7.034;2022-09-01T12:27:53;1.98;;;1.10;;
31596;SDS011;18201;50.978;7.034;2022-09-01T12:28:54;0.98;;;0.90;;
31596;SDS011;18201;50.978;7.034;2022-09-01T12:29:57;1.77;;;1.20;;
31596;SDS011;18201;50.978;7.034;2022-09-01T12:30:58;1.83;;;1.15;;
31596;SDS011;18201;50.978;7.034;2022-09-01T12:32:03;3.40;;;1.42;;
31596;SDS011;18201;50.978;7.034;2022-09-01T12:33:04;2.45;;;1.15;;
31596;SDS011;18201;50.978;7.034;2022-09-01T12:34:21;1.27;;;1.10;;
31596;SDS011;18201;50.978;7.034;2022-09-01T12:35:25;1.85;;;1.17;;
31596;SDS011;18201;50.978;7.034;2022-09-01T12:36:28;0.95;;;0.93;;
31596;SDS011;18201;50.978;7.034;2022-09-01T12:37:32;1.58;;;0.85;;
31596;SDS011;18201;50.978;7.034;2022-09-01T12:38:33;2.17;;;1.38;;
31596;SDS011;18201;50.978;7.034;2022-09-01T12:39:35;3.42;;;1.00;;
31596;SDS011;18201;50.978;7.034;2022-09-01T12:40:39;1.23;;;0.80;;
31596;SDS011;18201;50.978;7.034;2022-09-01T12:41:41;1.48;;;1.20;;
31596;SDS011;18201;50.978;7.034;2022-09-01T12:42:48;1.42;;;0.90;;
31596;SDS011;18201;50.978;7.034;2022-09-01T12:43:51;1.33;;;1.15;;
31596;SDS011;18201;50.978;7.034;2022-09-01T12:44:53;1.48;;;1.38;;
31596;SDS011;18201;50.978;7.034;2022-09-01T12:45:57;1.23;;;0.98;;
31596;SDS011;18201;50.978;7.034;2022-09-01T12:47:01;1.40;;;1.30;;
31596;SDS011;18201;50.978;7.034;2022-09-01T12:49:36;1.67;;;0.90;;
31596;SDS011;18201;50.978;7.034;2022-09-01T12:50:43;4.03;;;0.90;;
31596;SDS011;18201;50.978;7.034;2022-09-01T12:51:46;1.50;;;0.90;;
31596;SDS011;18201;50.978;7.034;2022-09-01T12:52:48;0.63;;;0.63;;
31596;SDS011;18201;50.978;7.034;2022-09-01T12:54:10;2.63;;;1.00;;
31596;SDS011;18201;50.978;7.034;2022-09-01T12:55:15;1.45;;;0.90;;
31596;SDS011;18201;50.978;7.034;2022-09-01T12:56:20;4.07;;;0.90;;
31596;SDS011;18201;50.978;7.034;2022-09-01T12:57:31;2.03;;;1.10;;
31596;SDS011;18201;50.978;7.034;2022-09-01T12:58:33;1.63;;;1.15;;
31596;SDS011;18201;50.978;7.034;2022-09-01T12:59:37;2.45;;;1.10;;
31596;SDS011;18201;50.978;7.034;2022-09-01T13:00:52;1.23;;;1.13;;
31596;SDS011;18201;50.978;7.034;2022-09-01T13:01:56;1.35;;;1.00;;
31596;SDS011;18201;50.978;7.034;2022-09-01T13:03:07;3.40;;;1.10;;
31596;SDS011;18201;50.978;7.034;2022-09-01T13:04:22;1.42;;;1.33;;
31596;SDS011;18201;50.978;7.034;2022-09-01T13:05:27;1.10;;;0.85;;
31596;SDS011;18201;50.978;7.034;2022-09-01T13:06:31;2.58;;;1.15;;
31596;SDS011;18201;50.978;7.034;2022-09-01T13:07:33;1.02;;;1.02;;
31596;SDS011;18201;50.978;7.034;2022-09-01T13:08:33;5.28;;;1.17;;
31596;SDS011;18201;50.978;7.034;2022-09-01T13:09:36;1.50;;;1.30;;
31596;SDS011;18201;50.978;7.034;2022-09-01T13:10:38;2.70;;;1.30;;
31596;SDS011;18201;50.978;7.034;2022-09-01T13:11:43;1.20;;;1.17;;
31596;SDS011;18201;50.978;7.034;2022-09-01T13:12:46;1.95;;;1.45;;
31596;SDS011;18201;50.978;7.034;2022-09-01T13:13:47;1.10;;;1.05;;
31596;SDS011;18201;50.978;7.034;2022-09-01T13:14:49;2.40;;;1.05;;
31596;SDS011;18201;50.978;7.034;2022-09-01T13:15:51;1.00;;;0.90;;
31596;SDS011;18201;50.978;7.034;2022-09-01T13:16:54;1.20;;;1.02;;
31596;SDS011;18201;50.978;7.034;2022-09-01T13:17:55;2.35;;;0.88;;
31596;SDS011;18201;50.978;7.034;2022-09-01T13:18:57;2.03;;;1.33;;
31596;SDS011;18201;50.978;7.034;2022-09-01T13:19:59;1.65;;;1.55;;
31596;SDS011;18201;50.978;7.034;2022-09-01T13:21:02;2.55;;;2.35;;
31596;SDS011;18201;50.978;7.034;2022-09-01T13:22:05;4.50;;;2.97;;
31596;SDS011;18201;50.978;7.034;2022-09-01T13:23:06;4.18;;;2.50;;
31596;SDS011;18201;50.978;7.034;2022-09-01T13:24:08;2.22;;;2.03;;
31596;SDS011;18201;50.978;7.034;2022-09-01T13:25:10;2.00;;;1.60;;